sensor_id;sensor_type;location;lat;lon;timestamp;temperature;humidity
25280;DHT22;13225;47.804;12.116;2023-06-10T00:00:24;14.00;99.90
25280;DHT22;13225;47.804;12.116;2023-06-10T00:02:49;14.00;99.90
25280;DHT22;13225;47.804;12.116;2023-06-10T00:05:15;14.00;99.90
25280;DHT22;13225;47.804;12.116;2023-06-10T00:07:41;14.00;99.90
25280;DHT22;13225;47.804;12.116;2023-06-10T00:10:07;13.90;99.90
25280;DHT22;13225;47.804;12.116;2023-06-10T00:12:33;13.80;99.90
25280;DHT22;13225;47.804;12.116;2023-06-10T00:15:06;13.80;99.90
25280;DHT22;13225;47.804;12.116;2023-06-10T00:17:32;13.80;99.90
25280;DHT22;13225;47.804;12.116;2023-06-10T00:19:58;13.80;99.90
25280;DHT22;13225;47.804;12.116;2023-06-10T00:22:24;13.70;99.90
25280;DHT22;13225;47.804;12.116;2023-06-10T00:24:55;13.70;99.90
25280;DHT22;13225;47.804;12.116;2023-06-10T00:27:22;13.70;99.90
25280;DHT22;13225;47.804;12.116;2023-06-10T00:29:47;13.60;99.90
25280;DHT22;13225;47.804;12.116;2023-06-10T00:32:13;13.60;99.90
25280;DHT22;13225;47.804;12.116;2023-06-10T00:34:39;13.60;99.90
25280;DHT22;13225;47.804;12.116;2023-06-10T00:37:05;13.50;99.90
25280;DHT22;13225;47.804;12.116;2023-06-10T00:39:30;13.40;99.90
25280;DHT22;13225;47.804;12.116;2023-06-10T00:41:56;13.30;99.90
25280;DHT22;13225;47.804;12.116;2023-06-10T00:44:21;13.20;99.90
25280;DHT22;13225;47.804;12.116;2023-06-10T00:46:47;13.10;99.90
25280;DHT22;13225;47.804;12.116;2023-06-10T00:49:15;13.10;99.90
25280;DHT22;13225;47.804;12.116;2023-06-10T00:51:42;13.00;99.90
25280;DHT22;13225;47.804;12.116;2023-06-10T00:54:08;12.90;99.90
25280;DHT22;13225;47.804;12.116;2023-06-10T00:56:34;12.90;99.90
25280;DHT22;13225;47.804;12.116;2023-06-10T00:59:00;12.80;99.90
25280;DHT22;13225;47.804;12.116;2023-06-10T01:01:26;12.80;99.90
25280;DHT22;13225;47.804;12.116;2023-06-10T01:03:52;12.80;99.90
25280;DHT22;13225;47.804;12.116;2023-06-10T01:06:41;12.80;99.90
25280;DHT22;13225;47.804;12.116;2023-06-10T01:12:02;12.80;99.90
25280;DHT22;13225;47.804;12.116;2023-06-10T01:14:34;12.80;99.90
25280;DHT22;13225;47.804;12.116;2023-06-10T01:17:01;12.80;99.90
25280;DHT22;13225;47.804;12.116;2023-06-10T01:19:28;12.70;99.90
25280;DHT22;13225;47.804;12.116;2023-06-10T01:21:56;12.70;99.90
25280;DHT22;13225;47.804;12.116;2023-06-10T01:24:26;12.80;99.90
25280;DHT22;13225;47.804;12.116;2023-06-10T01:26:53;12.80;99.90
25280;DHT22;13225;47.804;12.116;2023-06-10T01:29:26;12.80;99.90
25280;DHT22;13225;47.804;12.116;2023-06-10T01:32:32;12.80;99.90
25280;DHT22;13225;47.804;12.116;2023-06-10T01:34:59;12.70;99.90
25280;DHT22;13225;47.804;12.116;2023-06-10T01:37:27;12.60;99.90
25280;DHT22;13225;47.804;12.116;2023-06-10T01:39:55;12.60;99.90
25280;DHT22;13225;47.804;12.116;2023-06-10T01:42:23;12.60;99.90
25280;DHT22;13225;47.804;12.116;2023-06-10T01:44:48;12.60;99.90
25280;DHT22;13225;47.804;12.116;2023-06-10T01:47:14;12.60;99.90
25280;DHT22;13225;47.804;12.116;2023-06-10T01:49:39;12.50;99.90
25280;DHT22;13225;47.804;12.116;2023-06-10T01:52:06;12.50;99.90
25280;DHT22;13225;47.804;12.116;2023-06-10T01:54:31;12.50;99.90
25280;DHT22;13225;47.804;12.116;2023-06-10T01:56:57;12.40;99.90
25280;DHT22;13225;47.804;12.116;2023-06-10T01:59:22;12.40;99.90
25280;DHT22;13225;47.804;12.116;2023-06-10T02:01:48;12.30;99.90
25280;DHT22;13225;47.804;12.116;2023-06-10T02:04:13;12.20;99.90
25280;DHT22;13225;47.804;12.116;2023-06-10T02:06:39;12.10;99.90
25280;DHT22;13225;47.804;12.116;2023-06-10T02:09:05;12.10;99.90
25280;DHT22;13225;47.804;12.116;2023-06-10T02:11:30;12.10;99.90
25280;DHT22;13225;47.804;12.116;2023-06-10T02:13:56;12.10;99.90
25280;DHT22;13225;47.804;12.116;2023-06-10T02:16:21;12.20;99.90
25280;DHT22;13225;47.804;12.116;2023-06-10T02:18:47;12.10;99.90
25280;DHT22;13225;47.804;12.116;2023-06-10T02:21:14;12.10;99.90
25280;DHT22;13225;47.804;12.116;2023-06-10T02:23:39;12.10;99.90
25280;DHT22;13225;47.804;12.116;2023-06-10T02:26:05;12.10;99.90
25280;DHT22;13225;47.804;12.116;2023-06-10T02:28:31;12.00;99.90
25280;DHT22;13225;47.804;12.116;2023-06-10T02:30:57;11.90;99.90
25280;DHT22;13225;47.804;12.116;2023-06-10T02:33:23;11.90;99.90
25280;DHT22;13225;47.804;12.116;2023-06-10T02:35:49;11.90;99.90
25280;DHT22;13225;47.804;12.116;2023-06-10T02:38:15;11.90;99.90
25280;DHT22;13225;47.804;12.116;2023-06-10T02:40:40;11.90;99.90
25280;DHT22;13225;47.804;12.116;2023-06-10T02:43:06;11.90;99.90
25280;DHT22;13225;47.804;12.116;2023-06-10T02:45:31;11.90;99.90
25280;DHT22;13225;47.804;12.116;2023-06-10T02:47:57;12.00;99.90
25280;DHT22;13225;47.804;12.116;2023-06-10T02:50:23;11.90;99.90
25280;DHT22;13225;47.804;12.116;2023-06-10T02:52:48;12.00;99.90
25280;DHT22;13225;47.804;12.116;2023-06-10T02:55:15;11.90;99.90
25280;DHT22;13225;47.804;12.116;2023-06-10T02:57:41;11.80;99.90
25280;DHT22;13225;47.804;12.116;2023-06-10T03:00:07;11.80;99.90
25280;DHT22;13225;47.804;12.116;2023-06-10T03:02:37;11.80;99.90
25280;DHT22;13225;47.804;12.116;2023-06-10T03:05:04;11.80;99.90
25280;DHT22;13225;47.804;12.116;2023-06-10T03:07:31;11.80;99.90
25280;DHT22;13225;47.804;12.116;2023-06-10T03:09:57;11.80;99.90
25280;DHT22;13225;47.804;12.116;2023-06-10T03:12:23;11.80;99.90
25280;DHT22;13225;47.804;12.116;2023-06-10T03:14:48;11.80;99.90
25280;DHT22;13225;47.804;12.116;2023-06-10T03:17:14;11.80;99.90
25280;DHT22;13225;47.804;12.116;2023-06-10T03:19:39;11.90;99.90
25280;DHT22;13225;47.804;12.116;2023-06-10T03:22:13;11.90;99.90
25280;DHT22;13225;47.804;12.116;2023-06-10T03:24:38;11.80;99.90
25280;DHT22;13225;47.804;12.116;2023-06-10T03:27:09;11.80;99.90
25280;DHT22;13225;47.804;12.116;2023-06-10T03:29:35;11.70;99.90
25280;DHT22;13225;47.804;12.116;2023-06-10T03:32:01;11.80;99.90
25280;DHT22;13225;47.804;12.116;2023-06-10T03:34:27;11.80;99.90
25280;DHT22;13225;47.804;12.116;2023-06-10T03:36:52;11.70;99.90
25280;DHT22;13225;47.804;12.116;2023-06-10T03:39:18;11.70;99.90
25280;DHT22;13225;47.804;12.116;2023-06-10T03:41:43;11.70;99.90
25280;DHT22;13225;47.804;12.116;2023-06-10T03:44:09;11.80;99.90
25280;DHT22;13225;47.804;12.116;2023-06-10T03:46:35;11.80;99.90
25280;DHT22;13225;47.804;12.116;2023-06-10T03:49:01;11.90;99.90
25280;DHT22;13225;47.804;12.116;2023-06-10T03:51:27;12.00;99.90
25280;DHT22;13225;47.804;12.116;2023-06-10T03:53:52;12.20;99.90
25280;DHT22;13225;47.804;12.116;2023-06-10T03:56:18;12.20;99.90
25280;DHT22;13225;47.804;12.116;2023-06-10T03:58:43;12.30;99.90
25280;DHT22;13225;47.804;12.116;2023-06-10T04:01:10;12.30;99.90
25280;DHT22;13225;47.804;12.116;2023-06-10T04:03:36;12.60;99.90
25280;DHT22;13225;47.804;12.116;2023-06-10T04:06:02;13.20;99.90
25280;DHT22;13225;47.804;12.116;2023-06-10T04:08:28;13.80;99.90
25280;DHT22;13225;47.804;12.116;2023-06-10T04:10:53;14.10;99.90
25280;DHT22;13225;47.804;12.116;2023-06-10T04:13:19;14.30;99.90
25280;DHT22;13225;47.804;12.116;2023-06-10T04:15:45;14.50;99.90
25280;DHT22;13225;47.804;12.116;2023-06-10T04:18:10;14.90;99.90
25280;DHT22;13225;47.804;12.116;2023-06-10T04:20:36;15.70;99.90
25280;DHT22;13225;47.804;12.116;2023-06-10T04:23:02;15.90;99.90
25280;DHT22;13225;47.804;12.116;2023-06-10T04:25:27;15.70;99.90
25280;DHT22;13225;47.804;12.116;2023-06-10T04:27:54;15.80;99.90
25280;DHT22;13225;47.804;12.116;2023-06-10T04:30:20;16.50;99.90
25280;DHT22;13225;47.804;12.116;2023-06-10T04:32:45;16.70;99.90
25280;DHT22;13225;47.804;12.116;2023-06-10T04:35:12;17.00;99.90
25280;DHT22;13225;47.804;12.116;2023-06-10T04:37:39;16.60;99.90
25280;DHT22;13225;47.804;12.116;2023-06-10T04:40:07;16.70;99.90
25280;DHT22;13225;47.804;12.116;2023-06-10T04:42:32;17.10;99.90
25280;DHT22;13225;47.804;12.116;2023-06-10T04:44:58;17.60;99.90
25280;DHT22;13225;47.804;12.116;2023-06-10T04:47:23;18.00;99.90
25280;DHT22;13225;47.804;12.116;2023-06-10T04:49:49;18.50;99.90
25280;DHT22;13225;47.804;12.116;2023-06-10T04:52:15;18.20;99.90
25280;DHT22;13225;47.804;12.116;2023-06-10T04:54:40;17.80;99.90
25280;DHT22;13225;47.804;12.116;2023-06-10T04:57:06;18.30;99.90
25280;DHT22;13225;47.804;12.116;2023-06-10T04:59:33;18.50;99.90
25280;DHT22;13225;47.804;12.116;2023-06-10T05:02:03;19.00;99.90
25280;DHT22;13225;47.804;12.116;2023-06-10T05:04:28;19.20;99.90
25280;DHT22;13225;47.804;12.116;2023-06-10T05:06:55;19.00;99.90
25280;DHT22;13225;47.804;12.116;2023-06-10T05:09:20;18.50;99.90
25280;DHT22;13225;47.804;12.116;2023-06-10T05:11:46;18.70;99.90
25280;DHT22;13225;47.804;12.116;2023-06-10T05:14:12;18.80;99.90
25280;DHT22;13225;47.804;12.116;2023-06-10T05:16:38;18.60;99.90
25280;DHT22;13225;47.804;12.116;2023-06-10T05:19:04;19.00;99.90
25280;DHT22;13225;47.804;12.116;2023-06-10T05:21:30;19.30;99.90
25280;DHT22;13225;47.804;12.116;2023-06-10T05:23:55;19.40;99.90
25280;DHT22;13225;47.804;12.116;2023-06-10T05:26:21;19.20;99.90
25280;DHT22;13225;47.804;12.116;2023-06-10T05:28:47;18.70;99.90
25280;DHT22;13225;47.804;12.116;2023-06-10T05:31:12;18.00;99.90
25280;DHT22;13225;47.804;12.116;2023-06-10T05:33:39;17.50;99.90
25280;DHT22;13225;47.804;12.116;2023-06-10T05:36:05;17.30;99.90
25280;DHT22;13225;47.804;12.116;2023-06-10T05:38:30;17.20;99.90
25280;DHT22;13225;47.804;12.116;2023-06-10T05:40:56;16.90;99.90
25280;DHT22;13225;47.804;12.116;2023-06-10T05:43:22;17.00;99.90
25280;DHT22;13225;47.804;12.116;2023-06-10T05:45:48;16.90;99.90
25280;DHT22;13225;47.804;12.116;2023-06-10T05:48:13;16.80;99.90
25280;DHT22;13225;47.804;12.116;2023-06-10T05:50:39;17.00;99.90
25280;DHT22;13225;47.804;12.116;2023-06-10T05:53:07;17.10;99.90
25280;DHT22;13225;47.804;12.116;2023-06-10T05:55:43;17.20;99.90
25280;DHT22;13225;47.804;12.116;2023-06-10T05:58:08;17.40;99.90
25280;DHT22;13225;47.804;12.116;2023-06-10T06:00:34;17.40;99.90
25280;DHT22;13225;47.804;12.116;2023-06-10T06:02:59;17.70;99.90
25280;DHT22;13225;47.804;12.116;2023-06-10T06:05:25;17.70;99.90
25280;DHT22;13225;47.804;12.116;2023-06-10T06:07:51;17.70;99.90
25280;DHT22;13225;47.804;12.116;2023-06-10T06:10:17;17.50;99.90
25280;DHT22;13225;47.804;12.116;2023-06-10T06:12:43;17.50;99.90
25280;DHT22;13225;47.804;12.116;2023-06-10T06:15:10;17.20;99.90
25280;DHT22;13225;47.804;12.116;2023-06-10T06:17:35;17.00;99.90
25280;DHT22;13225;47.804;12.116;2023-06-10T06:20:02;17.10;99.90
25280;DHT22;13225;47.804;12.116;2023-06-10T06:22:28;17.10;99.90
25280;DHT22;13225;47.804;12.116;2023-06-10T06:24:53;17.20;99.90
25280;DHT22;13225;47.804;12.116;2023-06-10T06:27:19;17.50;99.90
25280;DHT22;13225;47.804;12.116;2023-06-10T06:29:44;17.80;99.90
25280;DHT22;13225;47.804;12.116;2023-06-10T06:32:10;18.00;99.90
25280;DHT22;13225;47.804;12.116;2023-06-10T06:34:35;18.00;99.90
25280;DHT22;13225;47.804;12.116;2023-06-10T06:37:01;17.90;99.90
25280;DHT22;13225;47.804;12.116;2023-06-10T06:39:27;18.00;99.90
25280;DHT22;13225;47.804;12.116;2023-06-10T06:41:53;18.20;99.90
25280;DHT22;13225;47.804;12.116;2023-06-10T06:44:19;18.40;99.90
25280;DHT22;13225;47.804;12.116;2023-06-10T06:46:45;18.10;99.90
25280;DHT22;13225;47.804;12.116;2023-06-10T06:49:10;18.30;99.90
25280;DHT22;13225;47.804;12.116;2023-06-10T06:51:36;18.30;99.90
25280;DHT22;13225;47.804;12.116;2023-06-10T06:54:02;18.50;99.90
25280;DHT22;13225;47.804;12.116;2023-06-10T06:56:28;18.70;99.90
25280;DHT22;13225;47.804;12.116;2023-06-10T06:58:53;18.50;99.90
25280;DHT22;13225;47.804;12.116;2023-06-10T07:01:20;18.30;99.90
25280;DHT22;13225;47.804;12.116;2023-06-10T07:03:45;18.30;99.90
25280;DHT22;13225;47.804;12.116;2023-06-10T07:06:12;18.50;99.90
25280;DHT22;13225;47.804;12.116;2023-06-10T07:08:38;18.60;99.90
25280;DHT22;13225;47.804;12.116;2023-06-10T07:11:04;18.70;99.90
25280;DHT22;13225;47.804;12.116;2023-06-10T07:13:29;18.90;99.90
25280;DHT22;13225;47.804;12.116;2023-06-10T07:15:55;18.90;99.90
25280;DHT22;13225;47.804;12.116;2023-06-10T07:18:20;18.60;99.90
25280;DHT22;13225;47.804;12.116;2023-06-10T07:20:46;18.70;99.90
25280;DHT22;13225;47.804;12.116;2023-06-10T07:23:12;18.90;99.90
25280;DHT22;13225;47.804;12.116;2023-06-10T07:25:37;19.10;99.90
25280;DHT22;13225;47.804;12.116;2023-06-10T07:28:03;19.00;99.90
25280;DHT22;13225;47.804;12.116;2023-06-10T07:30:28;19.10;99.90
25280;DHT22;13225;47.804;12.116;2023-06-10T07:32:54;19.10;99.90
25280;DHT22;13225;47.804;12.116;2023-06-10T07:35:21;19.20;99.90
25280;DHT22;13225;47.804;12.116;2023-06-10T07:37:47;19.30;99.90
25280;DHT22;13225;47.804;12.116;2023-06-10T07:40:12;19.40;99.90
25280;DHT22;13225;47.804;12.116;2023-06-10T07:42:38;19.40;99.90
25280;DHT22;13225;47.804;12.116;2023-06-10T07:45:04;19.40;99.90
25280;DHT22;13225;47.804;12.116;2023-06-10T07:47:32;19.40;99.90
25280;DHT22;13225;47.804;12.116;2023-06-10T07:49:58;19.60;99.90
25280;DHT22;13225;47.804;12.116;2023-06-10T07:52:24;19.60;99.90
25280;DHT22;13225;47.804;12.116;2023-06-10T07:54:51;19.60;99.90
25280;DHT22;13225;47.804;12.116;2023-06-10T07:57:17;19.70;99.90
25280;DHT22;13225;47.804;12.116;2023-06-10T07:59:43;19.80;99.90
25280;DHT22;13225;47.804;12.116;2023-06-10T08:02:09;19.90;99.90
25280;DHT22;13225;47.804;12.116;2023-06-10T08:04:35;19.80;99.90
25280;DHT22;13225;47.804;12.116;2023-06-10T08:07:01;20.00;99.90
25280;DHT22;13225;47.804;12.116;2023-06-10T08:09:27;20.00;99.90
25280;DHT22;13225;47.804;12.116;2023-06-10T08:11:53;20.00;99.90
25280;DHT22;13225;47.804;12.116;2023-06-10T08:14:19;20.10;99.90
25280;DHT22;13225;47.804;12.116;2023-06-10T08:16:44;20.30;99.90
25280;DHT22;13225;47.804;12.116;2023-06-10T08:19:11;20.30;99.90
25280;DHT22;13225;47.804;12.116;2023-06-10T08:21:36;20.30;99.90
25280;DHT22;13225;47.804;12.116;2023-06-10T08:24:03;20.40;99.90
25280;DHT22;13225;47.804;12.116;2023-06-10T08:26:28;20.50;99.90
25280;DHT22;13225;47.804;12.116;2023-06-10T08:28:54;20.60;99.90
25280;DHT22;13225;47.804;12.116;2023-06-10T08:31:20;20.80;99.90
25280;DHT22;13225;47.804;12.116;2023-06-10T08:33:46;20.90;99.90
25280;DHT22;13225;47.804;12.116;2023-06-10T08:36:12;21.10;99.90
25280;DHT22;13225;47.804;12.116;2023-06-10T08:38:38;20.90;99.90
25280;DHT22;13225;47.804;12.116;2023-06-10T08:41:05;21.00;99.90
25280;DHT22;13225;47.804;12.116;2023-06-10T08:44:31;21.00;99.90
25280;DHT22;13225;47.804;12.116;2023-06-10T08:46:32;20.70;99.90
25280;DHT22;13225;47.804;12.116;2023-06-10T08:49:02;20.80;99.90
25280;DHT22;13225;47.804;12.116;2023-06-10T08:51:30;21.10;99.90
25280;DHT22;13225;47.804;12.116;2023-06-10T08:54:09;21.30;99.90
25280;DHT22;13225;47.804;12.116;2023-06-10T08:56:39;21.40;99.90
25280;DHT22;13225;47.804;12.116;2023-06-10T08:59:05;21.50;99.90
25280;DHT22;13225;47.804;12.116;2023-06-10T09:01:31;21.60;99.90
25280;DHT22;13225;47.804;12.116;2023-06-10T09:03:59;22.00;99.90
25280;DHT22;13225;47.804;12.116;2023-06-10T09:06:25;22.20;99.90
25280;DHT22;13225;47.804;12.116;2023-06-10T09:08:51;22.00;99.90
25280;DHT22;13225;47.804;12.116;2023-06-10T09:11:17;22.30;99.90
25280;DHT22;13225;47.804;12.116;2023-06-10T09:13:43;22.60;99.90
25280;DHT22;13225;47.804;12.116;2023-06-10T09:16:09;22.80;99.90
25280;DHT22;13225;47.804;12.116;2023-06-10T09:18:37;22.60;99.90
25280;DHT22;13225;47.804;12.116;2023-06-10T09:21:03;22.80;99.90
25280;DHT22;13225;47.804;12.116;2023-06-10T09:23:29;23.10;99.90
25280;DHT22;13225;47.804;12.116;2023-06-10T09:25:58;23.00;99.90
25280;DHT22;13225;47.804;12.116;2023-06-10T09:28:24;23.30;99.90
25280;DHT22;13225;47.804;12.116;2023-06-10T09:30:49;23.50;99.90
25280;DHT22;13225;47.804;12.116;2023-06-10T09:33:16;23.90;99.90
25280;DHT22;13225;47.804;12.116;2023-06-10T09:35:49;24.30;99.90
25280;DHT22;13225;47.804;12.116;2023-06-10T09:38:19;24.30;99.90
25280;DHT22;13225;47.804;12.116;2023-06-10T09:40:53;24.60;99.90
25280;DHT22;13225;47.804;12.116;2023-06-10T09:43:19;24.70;99.90
25280;DHT22;13225;47.804;12.116;2023-06-10T09:45:50;24.70;99.90
25280;DHT22;13225;47.804;12.116;2023-06-10T09:48:19;24.70;99.90
25280;DHT22;13225;47.804;12.116;2023-06-10T09:50:45;24.90;99.90
25280;DHT22;13225;47.804;12.116;2023-06-10T09:53:11;25.10;99.90
25280;DHT22;13225;47.804;12.116;2023-06-10T09:55:38;24.90;99.90
25280;DHT22;13225;47.804;12.116;2023-06-10T09:58:04;25.10;99.90
25280;DHT22;13225;47.804;12.116;2023-06-10T10:00:32;25.30;99.90
25280;DHT22;13225;47.804;12.116;2023-06-10T10:02:59;25.30;99.90
25280;DHT22;13225;47.804;12.116;2023-06-10T10:05:25;25.40;99.90
25280;DHT22;13225;47.804;12.116;2023-06-10T10:07:51;25.60;99.90
25280;DHT22;13225;47.804;12.116;2023-06-10T10:10:19;25.30;99.90
25280;DHT22;13225;47.804;12.116;2023-06-10T10:12:47;25.20;99.90
25280;DHT22;13225;47.804;12.116;2023-06-10T10:15:16;25.20;99.90
25280;DHT22;13225;47.804;12.116;2023-06-10T10:18:13;25.10;99.90
25280;DHT22;13225;47.804;12.116;2023-06-10T10:20:46;24.70;99.90
25280;DHT22;13225;47.804;12.116;2023-06-10T10:23:14;24.50;99.90
25280;DHT22;13225;47.804;12.116;2023-06-10T10:25:44;24.30;99.90
25280;DHT22;13225;47.804;12.116;2023-06-10T10:28:12;24.20;99.90
25280;DHT22;13225;47.804;12.116;2023-06-10T10:30:49;24.10;99.90
25280;DHT22;13225;47.804;12.116;2023-06-10T10:36:14;23.80;99.90
25280;DHT22;13225;47.804;12.116;2023-06-10T10:38:41;23.60;99.90
25280;DHT22;13225;47.804;12.116;2023-06-10T10:41:07;23.40;99.90
25280;DHT22;13225;47.804;12.116;2023-06-10T10:43:34;23.10;99.90
25280;DHT22;13225;47.804;12.116;2023-06-10T10:46:13;23.10;99.90
25280;DHT22;13225;47.804;12.116;2023-06-10T10:48:39;23.00;99.90
25280;DHT22;13225;47.804;12.116;2023-06-10T10:51:08;23.00;99.90
25280;DHT22;13225;47.804;12.116;2023-06-10T10:53:36;23.10;99.90
25280;DHT22;13225;47.804;12.116;2023-06-10T10:58:31;23.50;99.90
25280;DHT22;13225;47.804;12.116;2023-06-10T11:00:57;23.90;99.90
25280;DHT22;13225;47.804;12.116;2023-06-10T11:03:28;23.90;99.90
25280;DHT22;13225;47.804;12.116;2023-06-10T11:05:57;24.10;99.90
25280;DHT22;13225;47.804;12.116;2023-06-10T11:10:54;24.10;99.90
25280;DHT22;13225;47.804;12.116;2023-06-10T11:13:21;24.20;99.90
25280;DHT22;13225;47.804;12.116;2023-06-10T11:15:48;24.20;99.90
25280;DHT22;13225;47.804;12.116;2023-06-10T11:26:29;24.10;99.90
25280;DHT22;13225;47.804;12.116;2023-06-10T11:31:32;24.30;99.90
25280;DHT22;13225;47.804;12.116;2023-06-10T11:34:02;24.40;99.90
25280;DHT22;13225;47.804;12.116;2023-06-10T11:36:29;24.70;99.90
25280;DHT22;13225;47.804;12.116;2023-06-10T11:38:58;25.10;99.90
25280;DHT22;13225;47.804;12.116;2023-06-10T11:41:25;25.40;99.90
25280;DHT22;13225;47.804;12.116;2023-06-10T11:43:52;25.90;99.90
25280;DHT22;13225;47.804;12.116;2023-06-10T11:46:18;26.30;99.90
25280;DHT22;13225;47.804;12.116;2023-06-10T11:48:52;26.40;99.90
25280;DHT22;13225;47.804;12.116;2023-06-10T11:51:18;26.30;99.90
25280;DHT22;13225;47.804;12.116;2023-06-10T11:53:45;26.80;99.90
25280;DHT22;13225;47.804;12.116;2023-06-10T11:56:11;26.90;99.90
25280;DHT22;13225;47.804;12.116;2023-06-10T11:58:36;26.70;99.90
25280;DHT22;13225;47.804;12.116;2023-06-10T12:01:02;26.80;99.90
25280;DHT22;13225;47.804;12.116;2023-06-10T12:03:36;27.00;99.70
25280;DHT22;13225;47.804;12.116;2023-06-10T12:06:05;26.60;97.90
25280;DHT22;13225;47.804;12.116;2023-06-10T12:08:32;26.50;98.70
25280;DHT22;13225;47.804;12.116;2023-06-10T12:10:58;26.50;98.90
25280;DHT22;13225;47.804;12.116;2023-06-10T12:13:27;26.60;98.60
25280;DHT22;13225;47.804;12.116;2023-06-10T12:15:52;26.70;99.90
25280;DHT22;13225;47.804;12.116;2023-06-10T12:18:19;26.80;99.90
25280;DHT22;13225;47.804;12.116;2023-06-10T12:20:45;27.20;99.90
25280;DHT22;13225;47.804;12.116;2023-06-10T12:23:12;27.40;99.60
25280;DHT22;13225;47.804;12.116;2023-06-10T12:25:38;27.40;99.60
25280;DHT22;13225;47.804;12.116;2023-06-10T12:28:05;27.70;99.20
25280;DHT22;13225;47.804;12.116;2023-06-10T12:30:32;27.70;98.50
25280;DHT22;13225;47.804;12.116;2023-06-10T12:32:58;27.90;99.10
25280;DHT22;13225;47.804;12.116;2023-06-10T12:35:25;27.80;99.90
25280;DHT22;13225;47.804;12.116;2023-06-10T12:40:30;27.70;99.90
25280;DHT22;13225;47.804;12.116;2023-06-10T12:42:57;27.60;99.90
25280;DHT22;13225;47.804;12.116;2023-06-10T12:45:36;27.50;99.90
25280;DHT22;13225;47.804;12.116;2023-06-10T12:48:19;27.50;99.90
25280;DHT22;13225;47.804;12.116;2023-06-10T12:50:51;27.50;99.90
25280;DHT22;13225;47.804;12.116;2023-06-10T12:53:18;27.60;99.90
25280;DHT22;13225;47.804;12.116;2023-06-10T12:55:44;27.00;99.90
25280;DHT22;13225;47.804;12.116;2023-06-10T12:58:11;26.50;99.90
25280;DHT22;13225;47.804;12.116;2023-06-10T13:00:37;26.40;99.90
25280;DHT22;13225;47.804;12.116;2023-06-10T13:03:03;26.30;99.90
25280;DHT22;13225;47.804;12.116;2023-06-10T13:05:31;25.80;99.90
25280;DHT22;13225;47.804;12.116;2023-06-10T13:07:57;25.90;99.90
25280;DHT22;13225;47.804;12.116;2023-06-10T13:10:23;25.70;99.90
25280;DHT22;13225;47.804;12.116;2023-06-10T13:12:50;25.50;99.90
25280;DHT22;13225;47.804;12.116;2023-06-10T13:15:16;25.10;99.90
25280;DHT22;13225;47.804;12.116;2023-06-10T13:17:45;25.20;99.90
25280;DHT22;13225;47.804;12.116;2023-06-10T13:20:14;25.20;99.90
25280;DHT22;13225;47.804;12.116;2023-06-10T13:22:40;25.40;99.90
25280;DHT22;13225;47.804;12.116;2023-06-10T13:25:06;25.00;99.90
25280;DHT22;13225;47.804;12.116;2023-06-10T13:27:33;24.90;99.90
25280;DHT22;13225;47.804;12.116;2023-06-10T13:29:59;25.00;99.90
25280;DHT22;13225;47.804;12.116;2023-06-10T13:32:25;25.20;99.90
25280;DHT22;13225;47.804;12.116;2023-06-10T13:34:50;25.10;99.90
25280;DHT22;13225;47.804;12.116;2023-06-10T13:37:16;24.90;99.90
25280;DHT22;13225;47.804;12.116;2023-06-10T13:39:45;24.90;99.90
25280;DHT22;13225;47.804;12.116;2023-06-10T13:42:17;25.00;99.90
25280;DHT22;13225;47.804;12.116;2023-06-10T13:44:42;25.20;99.90
25280;DHT22;13225;47.804;12.116;2023-06-10T13:47:08;25.30;99.90
25280;DHT22;13225;47.804;12.116;2023-06-10T13:49:33;25.50;99.90
25280;DHT22;13225;47.804;12.116;2023-06-10T13:51:59;25.80;99.90
25280;DHT22;13225;47.804;12.116;2023-06-10T13:54:24;26.00;99.90
25280;DHT22;13225;47.804;12.116;2023-06-10T13:56:50;26.20;99.90
25280;DHT22;13225;47.804;12.116;2023-06-10T13:59:16;26.50;99.90
25280;DHT22;13225;47.804;12.116;2023-06-10T14:01:41;26.80;99.90
25280;DHT22;13225;47.804;12.116;2023-06-10T14:04:07;27.00;99.90
25280;DHT22;13225;47.804;12.116;2023-06-10T14:06:33;26.90;99.90
25280;DHT22;13225;47.804;12.116;2023-06-10T14:09:02;26.70;99.90
25280;DHT22;13225;47.804;12.116;2023-06-10T14:11:28;26.70;99.90
25280;DHT22;13225;47.804;12.116;2023-06-10T14:13:53;27.60;99.90
25280;DHT22;13225;47.804;12.116;2023-06-10T14:16:21;28.60;99.90
25280;DHT22;13225;47.804;12.116;2023-06-10T14:18:47;28.80;98.30
25280;DHT22;13225;47.804;12.116;2023-06-10T14:21:12;28.90;97.90
25280;DHT22;13225;47.804;12.116;2023-06-10T14:23:38;28.70;97.70
25280;DHT22;13225;47.804;12.116;2023-06-10T14:26:04;28.20;97.90
25280;DHT22;13225;47.804;12.116;2023-06-10T14:28:31;28.30;98.40
25280;DHT22;13225;47.804;12.116;2023-06-10T14:30:57;28.50;98.30
25280;DHT22;13225;47.804;12.116;2023-06-10T14:33:23;28.90;97.90
25280;DHT22;13225;47.804;12.116;2023-06-10T14:35:48;28.90;97.60
25280;DHT22;13225;47.804;12.116;2023-06-10T14:38:14;29.00;97.50
25280;DHT22;13225;47.804;12.116;2023-06-10T14:40:40;28.70;97.60
25280;DHT22;13225;47.804;12.116;2023-06-10T14:43:06;28.90;97.90
25280;DHT22;13225;47.804;12.116;2023-06-10T14:45:39;29.20;97.20
25280;DHT22;13225;47.804;12.116;2023-06-10T14:48:06;29.00;97.20
25280;DHT22;13225;47.804;12.116;2023-06-10T14:50:34;28.20;97.10
25280;DHT22;13225;47.804;12.116;2023-06-10T14:53:00;28.20;97.80
25280;DHT22;13225;47.804;12.116;2023-06-10T14:55:26;29.10;97.40
25280;DHT22;13225;47.804;12.116;2023-06-10T14:57:52;29.70;95.40
25280;DHT22;13225;47.804;12.116;2023-06-10T15:00:17;30.60;94.10
25280;DHT22;13225;47.804;12.116;2023-06-10T15:02:47;30.20;94.10
25280;DHT22;13225;47.804;12.116;2023-06-10T15:05:17;29.90;94.30
25280;DHT22;13225;47.804;12.116;2023-06-10T15:07:45;29.60;94.30
25280;DHT22;13225;47.804;12.116;2023-06-10T15:10:11;29.10;94.40
25280;DHT22;13225;47.804;12.116;2023-06-10T15:12:37;28.60;95.30
25280;DHT22;13225;47.804;12.116;2023-06-10T15:15:03;28.50;96.20
25280;DHT22;13225;47.804;12.116;2023-06-10T15:17:29;28.00;96.00
25280;DHT22;13225;47.804;12.116;2023-06-10T15:19:54;27.60;96.60
25280;DHT22;13225;47.804;12.116;2023-06-10T15:22:20;27.50;96.60
25280;DHT22;13225;47.804;12.116;2023-06-10T15:24:46;27.40;96.90
25280;DHT22;13225;47.804;12.116;2023-06-10T15:27:12;27.30;97.10
25280;DHT22;13225;47.804;12.116;2023-06-10T15:29:37;27.20;96.60
25280;DHT22;13225;47.804;12.116;2023-06-10T15:32:03;27.20;97.10
25280;DHT22;13225;47.804;12.116;2023-06-10T15:34:29;27.20;96.80
25280;DHT22;13225;47.804;12.116;2023-06-10T15:36:54;27.00;96.10